Time;durP1;ratioP1;P1;durP2;ratioP2;P2;SDS_P1;SDS_P2;PMS_P1;PMS_P2;Temp;Humidity;BMP_temperature;BMP_pressure;BME280_temperature;BME280_humidity;BME280_pressure;Samples;Min_cycle;Max_cycle;Signal;HPM_P1;HPM_P2
2023/05/22 00:03:35;;;;;;;9.50;4.37;;;;;;;19.52;51.60;99734.53;7581368;33;39155;-76
2023/05/22 00:07:51;;;;;;;8.68;4.20;;;;;;;19.70;50.48;99733.28;7581541;33;36953;-76
2023/05/22 00:12:07;;;;;;;7.57;4.03;;;;;;;19.79;50.10;99733.28;7558175;33;40261;-77
2023/05/22 00:16:24;;;;;;;9.45;4.10;;;;;;;19.92;49.32;99738.88;7542610;33;40459;-77
2023/05/22 00:20:41;;;;;;;5.85;3.75;;;;;;;19.96;49.38;99745.38;7555410;33;37994;-77
2023/05/22 00:24:57;;;;;;;5.95;3.58;;;;;;;19.96;49.58;99740.66;7555598;33;36984;-76
2023/05/22 00:29:13;;;;;;;6.53;3.60;;;;;;;19.88;50.09;99735.97;7542748;33;40181;-76
2023/05/22 00:33:30;;;;;;;11.12;3.90;;;;;;;19.94;49.77;99744.88;7555414;33;39941;-76
2023/05/22 00:37:46;;;;;;;6.32;3.42;;;;;;;19.92;50.21;99741.66;7555058;33;38614;-77
2023/05/22 00:42:02;;;;;;;6.20;3.62;;;;;;;19.90;50.24;99733.69;7555230;33;37168;-76
2023/05/22 00:46:23;;;;;;;6.68;3.50;;;;;;;19.82;50.22;99729.03;7542343;33;39010;-77
2023/05/22 00:50:39;;;;;;;6.20;3.62;;;;;;;19.95;49.99;99733.47;7555315;33;40513;-76
2023/05/22 00:54:56;;;;;;;8.27;3.95;;;;;;;19.85;50.36;99723.66;7555105;33;38681;-77
2023/05/22 00:59:12;;;;;;;5.55;3.33;;;;;;;19.76;51.10;99727.59;7555170;33;37024;-77
2023/05/22 01:03:30;;;;;;;7.78;3.35;;;;;;;19.83;50.85;99728.72;7554985;33;39441;-76
2023/05/22 01:07:47;;;;;;;8.90;4.10;;;;;;;19.75;50.86;99721.28;7554089;33;39067;-76
2023/05/22 01:12:33;;;;;;;5.12;3.08;;;;;;;19.85;50.74;99720.03;7541752;33;38065;-76
2023/05/22 01:17:01;;;;;;;8.75;3.83;;;;;;;19.83;49.51;99723.19;7554969;33;37531;-76
2023/05/22 01:21:56;;;;;;;8.45;3.55;;;;;;;19.83;49.50;99725.94;7542829;33;39485;-76
2023/05/22 01:26:27;;;;;;;5.75;3.15;;;;;;;19.80;50.27;99715.53;7542143;33;39910;-76
2023/05/22 01:30:59;;;;;;;5.12;3.33;;;;;;;19.70;50.76;99715.91;7542612;33;37946;-76
2023/05/22 01:35:19;;;;;;;5.53;3.45;;;;;;;19.39;51.49;99711.50;7542065;33;37132;-77
2023/05/22 01:39:37;;;;;;;5.05;3.45;;;;;;;19.58;50.55;99721.34;7554574;33;39346;-77
2023/05/22 01:43:53;;;;;;;6.00;3.40;;;;;;;19.65;49.67;99733.50;7541625;33;39675;-77
2023/05/22 01:48:10;;;;;;;7.72;3.25;;;;;;;19.35;50.43;99721.63;7541232;33;38798;-76
2023/05/22 01:53:11;;;;;;;13.05;3.67;;;;;;;19.37;51.02;99712.97;7554548;33;37292;-77
2023/05/22 01:57:42;;;;;;;8.20;3.87;;;;;;;19.34;51.05;99714.47;7565888;33;39918;-76
2023/05/22 02:02:03;;;;;;;7.45;3.45;;;;;;;19.34;50.06;99706.19;7580182;33;41198;-77
2023/05/22 02:06:20;;;;;;;6.00;3.22;;;;;;;19.14;50.51;99713.25;7580157;33;37744;-76
2023/05/22 02:10:37;;;;;;;7.45;3.30;;;;;;;19.26;50.13;99710.59;7580009;33;37787;-77
2023/05/22 02:14:54;;;;;;;5.82;3.30;;;;;;;19.22;49.83;99711.59;7566925;33;39356;-76
2023/05/22 02:19:10;;;;;;;5.55;3.22;;;;;;;19.24;49.62;99701.03;7578268;33;40864;-76
2023/05/22 02:23:29;;;;;;;8.38;2.97;;;;;;;19.18;50.07;99699.56;7574925;33;37867;-76
2023/05/22 02:27:48;;;;;;;5.47;2.95;;;;;;;19.12;49.59;99701.72;7554133;33;37039;-76
2023/05/22 02:32:05;;;;;;;5.00;2.87;;;;;;;19.27;48.81;99703.13;7554061;33;39384;-76
2023/05/22 02:36:21;;;;;;;6.35;3.10;;;;;;;19.15;49.36;99703.81;7553761;33;39653;-76
2023/05/22 02:40:38;;;;;;;8.88;3.10;;;;;;;19.07;49.76;99697.16;7553784;33;37966;-76
2023/05/22 02:44:58;;;;;;;8.68;3.17;;;;;;;18.88;50.33;99694.00;7554085;33;37081;-76
2023/05/22 02:49:14;;;;;;;6.15;2.80;;;;;;;18.91;50.38;99698.88;7553697;33;39351;-76
2023/05/22 02:53:32;;;;;;;7.43;3.47;;;;;;;18.92;50.35;99694.94;7553531;33;40925;-77
2023/05/22 02:57:48;;;;;;;7.05;3.30;;;;;;;18.73;50.60;99692.53;7553468;33;37987;-76
2023/05/22 03:02:05;;;;;;;4.87;2.92;;;;;;;18.43;50.98;99694.41;7571760;33;37156;-76
2023/05/22 03:06:22;;;;;;;5.72;3.40;;;;;;;18.69;50.36;99695.16;7578941;33;39142;-77
2023/05/22 03:10:38;;;;;;;7.45;3.55;;;;;;;18.71;50.49;99701.19;7578671;33;40747;-76
2023/05/22 03:14:54;;;;;;;10.40;3.10;;;;;;;18.55;50.82;99698.09;7578599;33;37981;-76
2023/05/22 03:19:12;;;;;;;8.88;3.12;;;;;;;18.64;51.16;99700.84;7578757;33;37280;-76
2023/05/22 03:23:29;;;;;;;5.35;3.20;;;;;;;18.62;50.31;99703.13;7577490;33;37305;-76
2023/05/22 03:27:45;;;;;;;10.75;3.00;;;;;;;18.59;50.39;99695.50;7578371;33;40011;-75
2023/05/22 03:32:02;;;;;;;8.20;2.85;;;;;;;18.55;50.02;99703.63;7580908;33;37880;-76
2023/05/22 03:36:20;;;;;;;7.25;2.90;;;;;;;18.47;50.10;99706.41;7581710;33;37122;-76
2023/05/22 03:40:36;;;;;;;8.57;3.30;;;;;;;18.55;49.49;99709.16;7581859;33;39401;-76
2023/05/22 03:44:53;;;;;;;6.78;3.12;;;;;;;18.52;49.67;99697.94;7581656;33;39689;-76
2023/05/22 03:49:09;;;;;;;4.07;2.75;;;;;;;18.61;49.61;99695.16;7581622;33;38587;-76
2023/05/22 03:53:25;;;;;;;9.25;3.10;;;;;;;18.81;48.43;99696.44;7568124;33;37071;-76
2023/05/22 03:57:42;;;;;;;7.50;3.17;;;;;;;18.84;48.06;99698.56;7581535;33;40152;-76
2023/05/22 04:01:59;;;;;;;4.78;3.00;;;;;;;18.69;49.20;99697.09;7581513;33;39935;-76
2023/05/22 04:06:20;;;;;;;9.35;3.00;;;;;;;18.76;49.60;99692.72;7581329;33;36974;-76
2023/05/22 04:10:37;;;;;;;8.30;3.15;;;;;;;18.66;50.31;99693.06;7581452;33;37171;-75
2023/05/22 04:14:54;;;;;;;5.45;2.85;;;;;;;18.81;49.45;99696.44;7581718;33;39959;-75
2023/05/22 04:19:11;;;;;;;4.50;2.90;;;;;;;18.89;49.40;99685.38;7581230;33;40825;-76
2023/05/22 04:23:27;;;;;;;5.15;3.10;;;;;;;18.80;50.06;99686.50;7571174;33;38560;-77
2023/05/22 04:27:43;;;;;;;6.78;2.95;;;;;;;18.86;49.59;99679.72;7555552;33;37137;-76
2023/05/22 04:32:00;;;;;;;6.10;2.78;;;;;;;19.06;47.75;99681.75;7555447;33;40122;-76
2023/05/22 04:36:16;;;;;;;8.20;2.95;;;;;;;19.13;48.17;99678.47;7555206;33;40865;-73
2023/05/22 04:40:33;;;;;;;8.90;3.15;;;;;;;19.56;47.07;99676.59;7555050;33;38885;-72
2023/05/22 04:44:51;;;;;;;6.65;2.75;;;;;;;19.69;48.46;99673.59;7555208;33;37762;-72
2023/05/22 04:49:08;;;;;;;8.52;2.58;;;;;;;19.96;48.03;99685.31;7555377;33;40176;-70
2023/05/22 04:53:26;;;;;;;7.18;2.87;;;;;;;20.00;46.22;99677.94;7550015;33;40071;-70
2023/05/22 04:57:43;;;;;;;4.53;2.75;;;;;;;20.15;45.91;99673.75;7580724;33;39568;-72
2023/05/22 05:02:00;;;;;;;5.97;2.92;;;;;;;20.18;45.61;99678.63;7580802;33;37095;-72
2023/05/22 05:06:16;;;;;;;13.38;2.97;;;;;;;20.04;46.19;99672.53;7580732;33;39295;-72
2023/05/22 05:10:33;;;;;;;8.43;3.03;;;;;;;20.32;46.91;99678.34;7580687;33;41368;-76
2023/05/22 05:14:49;;;;;;;10.18;2.85;;;;;;;20.49;46.25;99676.53;7580575;33;37979;-75
2023/05/22 05:19:06;;;;;;;6.55;2.97;;;;;;;20.65;45.42;99679.53;7578993;33;37939;-76
2023/05/22 05:23:22;;;;;;;7.32;3.00;;;;;;;20.78;46.00;99670.91;7545262;33;39323;-76
2023/05/22 05:27:39;;;;;;;7.90;3.20;;;;;;;20.96;44.56;99679.00;7562401;33;40799;-78
2023/05/22 05:31:55;;;;;;;6.32;2.80;;;;;;;21.15;44.10;99681.22;7567143;33;37619;-75
2023/05/22 05:36:11;;;;;;;7.47;2.72;;;;;;;21.42;44.68;99674.16;7553649;33;37153;-74
2023/05/22 05:40:28;;;;;;;8.60;2.90;;;;;;;21.24;43.95;99679.13;7540152;33;40131;-74
2023/05/22 05:44:44;;;;;;;11.85;2.65;;;;;;;21.53;43.12;99674.53;7553126;33;39958;-75
2023/05/22 05:49:04;;;;;;;7.60;2.20;;;;;;;21.58;41.04;99674.28;7545849;33;38719;-69
2023/05/22 05:53:21;;;;;;;4.85;2.50;;;;;;;21.91;39.79;99676.09;7549732;33;37815;-68
2023/05/22 05:57:37;;;;;;;10.20;2.58;;;;;;;22.23;39.02;99671.47;7580249;33;40008;-69
2023/05/22 06:01:53;;;;;;;6.65;2.60;;;;;;;22.28;39.24;99662.09;7580224;33;40037;-69
2023/05/22 06:06:10;;;;;;;6.35;3.00;;;;;;;22.58;38.75;99662.53;7578470;33;38573;-69
2023/05/22 06:10:27;;;;;;;3.95;2.25;;;;;;;22.72;38.94;99662.09;7558237;33;37390;-68
2023/05/22 06:14:43;;;;;;;6.93;2.67;;;;;;;22.76;38.13;99663.00;7554379;33;40452;-68
2023/05/22 06:18:59;;;;;;;10.23;2.45;;;;;;;22.79;39.45;99669.81;7554175;33;39770;-69
2023/05/22 06:23:16;;;;;;;6.25;2.75;;;;;;;22.79;37.56;99665.06;7553919;33;38023;-69
2023/05/22 06:27:32;;;;;;;7.80;2.97;;;;;;;22.94;39.13;99670.97;7554090;33;37040;-69
2023/05/22 06:31:48;;;;;;;6.05;2.60;;;;;;;22.87;38.38;99679.97;7554007;33;40178;-69
2023/05/22 06:36:05;;;;;;;9.63;2.78;;;;;;;22.88;38.80;99682.34;7553734;33;40922;-70
2023/05/22 06:40:22;;;;;;;6.60;2.85;;;;;;;23.01;38.79;99687.87;7553823;33;38625;-68
2023/05/22 06:44:38;;;;;;;10.15;2.85;;;;;;;22.83;38.30;99688.19;7553752;33;37060;-70
2023/05/22 06:48:54;;;;;;;6.87;2.90;;;;;;;23.03;40.20;99688.31;7553551;33;40122;-80
2023/05/22 06:53:11;;;;;;;6.22;2.28;;;;;;;23.14;39.06;99683.84;7559244;33;41321;-79
2023/05/22 06:57:27;;;;;;;6.15;2.67;;;;;;;22.90;38.66;99695.09;7553383;33;38492;-78
2023/05/22 07:01:44;;;;;;;5.60;2.85;;;;;;;23.08;38.83;99696.41;7553517;33;37930;-79
2023/05/22 07:06:01;;;;;;;4.87;2.55;;;;;;;23.04;39.32;99692.69;7555395;33;40221;-79
2023/05/22 07:10:17;;;;;;;5.60;2.30;;;;;;;23.38;40.68;99693.16;7556373;33;39605;-79
2023/05/22 07:14:33;;;;;;;7.03;2.78;;;;;;;23.86;39.35;99696.69;7556252;33;38012;-79
2023/05/22 07:18:50;;;;;;;5.07;2.65;;;;;;;23.70;37.55;99693.09;7556341;33;37801;-78
2023/05/22 07:23:07;;;;;;;5.03;2.80;;;;;;;24.11;37.62;99679.69;7572133;33;39570;-74
2023/05/22 07:27:23;;;;;;;4.75;2.53;;;;;;;23.99;37.13;99684.25;7558817;33;40960;-75
2023/05/22 07:31:41;;;;;;;4.15;2.40;;;;;;;24.60;36.61;99687.47;7569541;33;38683;-73
2023/05/22 07:35:57;;;;;;;5.10;2.37;;;;;;;24.66;37.58;99677.62;7541103;33;37015;-74
2023/05/22 07:40:13;;;;;;;6.87;2.50;;;;;;;24.91;36.60;99680.06;7537337;33;39289;-73
2023/05/22 07:44:30;;;;;;;7.47;2.60;;;;;;;24.97;35.71;99672.19;7538180;33;40854;-74
2023/05/22 07:48:46;;;;;;;5.12;2.20;;;;;;;24.81;34.38;99678.69;7538093;33;38658;-74
2023/05/22 07:53:03;;;;;;;4.40;2.40;;;;;;;24.92;35.65;99684.44;7540634;33;37090;-70
2023/05/22 07:57:20;;;;;;;4.60;2.33;;;;;;;25.52;35.59;99677.50;7536302;33;39078;-77
2023/05/22 08:01:40;;;;;;;4.05;2.50;;;;;;;25.52;35.22;99672.72;7538519;33;39930;-77
2023/05/22 08:05:56;;;;;;;8.45;2.35;;;;;;;25.60;34.92;99674.44;7555641;33;38796;-76
2023/05/22 08:10:15;;;;;;;5.40;2.53;;;;;;;25.77;34.18;99670.28;7555713;33;37892;-76
2023/05/22 08:14:32;;;;;;;8.18;2.30;;;;;;;26.06;33.79;99673.50;7548904;33;40151;-76
2023/05/22 08:18:49;;;;;;;6.87;2.70;;;;;;;25.85;34.68;99660.81;7542367;33;39977;-76
2023/05/22 08:23:05;;;;;;;6.20;2.80;;;;;;;26.04;32.46;99659.91;7565711;33;37639;-78
2023/05/22 08:27:22;;;;;;;9.15;2.55;;;;;;;26.13;33.34;99673.59;7562422;33;37735;-78
2023/05/22 08:31:38;;;;;;;5.82;2.30;;;;;;;26.10;33.80;99663.16;7565640;33;40051;-76
2023/05/22 08:35:54;;;;;;;8.23;2.78;;;;;;;26.65;34.17;99661.78;7579114;33;39983;-78
2023/05/22 08:40:14;;;;;;;6.95;2.67;;;;;;;26.62;33.87;99660.56;7573848;33;37558;-77
2023/05/22 08:44:30;;;;;;;11.25;2.50;;;;;;;26.53;31.46;99665.66;7563609;33;37857;-76
2023/05/22 08:48:47;;;;;;;7.50;2.72;;;;;;;26.30;30.25;99661.00;7553584;33;39062;-76
2023/05/22 08:53:06;;;;;;;6.12;2.37;;;;;;;26.31;31.59;99659.00;7540929;33;40518;-76
2023/05/22 08:57:23;;;;;;;7.30;2.45;;;;;;;26.76;31.01;99654.31;7542053;33;36826;-76
2023/05/22 09:01:39;;;;;;;8.30;2.42;;;;;;;26.99;27.20;99651.31;7539406;33;36955;-76
2023/05/22 09:05:55;;;;;;;5.18;2.53;;;;;;;27.02;30.72;99660.94;7551933;33;39333;-75
2023/05/22 09:10:12;;;;;;;8.23;2.40;;;;;;;26.93;27.90;99658.47;7553711;33;40849;-75
2023/05/22 09:14:36;;;;;;;9.85;2.65;;;;;;;26.90;28.66;99653.66;7554161;33;38002;-75
2023/05/22 09:18:52;;;;;;;6.15;2.62;;;;;;;27.00;28.08;99657.72;7554733;33;37908;-75
2023/05/22 09:23:14;;;;;;;6.87;2.70;;;;;;;26.54;27.91;99650.47;7554723;33;39395;-75
2023/05/22 09:27:30;;;;;;;5.57;2.22;;;;;;;26.68;29.74;99652.63;7553748;33;39045;-75
2023/05/22 09:31:47;;;;;;;4.85;2.53;;;;;;;26.81;32.10;99645.56;7554618;33;37926;-75
2023/05/22 09:36:07;;;;;;;4.70;2.30;;;;;;;26.87;27.93;99644.06;7554452;33;37917;-75
2023/05/22 09:40:25;;;;;;;11.73;2.50;;;;;;;26.96;31.09;99647.31;7541674;33;40137;-75
2023/05/22 09:44:46;;;;;;;5.32;2.33;;;;;;;27.10;29.78;99645.84;7554471;33;40530;-75
2023/05/22 09:49:03;;;;;;;9.27;2.83;;;;;;;27.61;29.07;99633.78;7549478;33;37956;-79
2023/05/22 09:53:24;;;;;;;5.70;2.33;;;;;;;28.06;26.83;99636.44;7516056;33;37751;-77
2023/05/22 09:57:45;;;;;;;6.62;2.17;;;;;;;28.19;31.21;99628.50;7528952;33;39399;-75
2023/05/22 10:02:02;;;;;;;6.62;2.35;;;;;;;28.06;29.39;99626.03;7528716;33;39659;-74
2023/05/22 10:06:20;;;;;;;6.65;2.45;;;;;;;28.05;30.60;99624.44;7528597;33;38645;-75
2023/05/22 10:10:37;;;;;;;4.00;2.25;;;;;;;28.21;33.56;99614.88;7515865;33;37034;-75
2023/05/22 10:14:54;;;;;;;6.50;2.47;;;;;;;28.50;27.27;99617.75;7515883;33;38350;-74
2023/05/22 10:19:12;;;;;;;4.35;2.40;;;;;;;27.32;27.40;99619.63;7528541;33;39952;-75
2023/05/22 10:23:28;;;;;;;5.28;2.20;;;;;;;27.64;27.79;99609.81;7515376;33;37972;-73
2023/05/22 10:27:45;;;;;;;7.68;2.45;;;;;;;26.78;26.90;99621.19;7515399;33;38452;-75
2023/05/22 10:32:04;;;;;;;3.58;2.17;;;;;;;27.13;27.61;99606.69;7539401;33;39027;-76
2023/05/22 10:36:50;;;;;;;9.73;2.55;;;;;;;27.30;27.98;99610.00;7529427;33;39762;-76
2023/05/22 10:41:08;;;;;;;3.75;2.12;;;;;;;27.85;28.38;99606.31;7517467;33;37892;-76
2023/05/22 10:45:28;;;;;;;5.20;2.50;;;;;;;27.97;27.25;99586.38;7514952;33;37723;-76
2023/05/22 10:49:45;;;;;;;6.07;2.70;;;;;;;28.08;27.68;99592.03;7536237;33;39369;-76
2023/05/22 10:54:04;;;;;;;5.32;2.67;;;;;;;27.55;27.44;99593.38;7527884;33;40932;-75
2023/05/22 10:58:31;;;;;;;6.95;2.70;;;;;;;28.01;28.56;99592.81;7527718;33;37894;-76
2023/05/22 11:02:48;;;;;;;5.75;2.25;;;;;;;28.02;27.08;99585.19;7527708;33;36836;-76
2023/05/22 11:07:06;;;;;;;9.30;2.60;;;;;;;27.89;26.30;99593.94;7541124;33;39512;-76
2023/05/22 11:11:25;;;;;;;5.95;2.50;;;;;;;27.75;24.25;99584.66;7561727;33;40162;-75
2023/05/22 11:15:48;;;;;;;4.10;2.15;;;;;;;27.62;24.39;99582.22;7567857;33;38007;-76
2023/05/22 11:20:04;;;;;;;;;;;;;;;28.02;29.13;99571.97;7579006;33;37732;-74
2023/05/22 11:24:21;;;;;;;5.75;2.40;;;;;;;28.42;25.21;99561.69;7578909;33;39796;-76
2023/05/22 11:28:37;;;;;;;6.62;2.65;;;;;;;28.67;26.16;99571.34;7578436;33;39961;-76
2023/05/22 11:32:56;;;;;;;3.95;2.12;;;;;;;28.42;26.60;99566.47;7578374;33;37949;-76
2023/05/22 11:37:12;;;;;;;7.90;2.53;;;;;;;28.38;25.36;99563.66;7578235;33;36896;-76
2023/05/22 11:41:33;;;;;;;6.32;2.37;;;;;;;28.12;26.83;99566.81;7564903;33;40196;-75
2023/05/22 11:45:49;;;;;;;4.20;2.25;;;;;;;28.33;29.40;99563.25;7577967;33;39904;-75
2023/05/22 11:50:08;;;;;;;9.75;2.80;;;;;;;28.61;27.97;99549.31;7578155;33;37632;-75
2023/05/22 11:54:25;;;;;;;6.95;2.70;;;;;;;28.90;28.04;99540.84;7581665;33;38123;-75
2023/05/22 11:58:41;;;;;;;6.43;2.33;;;;;;;29.11;29.92;99548.44;7581641;33;39303;-75
2023/05/22 12:02:57;;;;;;;5.18;2.62;;;;;;;29.28;29.04;99546.03;7581575;33;39577;-75
2023/05/22 12:07:14;;;;;;;12.43;2.80;;;;;;;29.27;27.60;99536.00;7568133;33;37874;-76
2023/05/22 12:11:35;;;;;;;4.18;2.50;;;;;;;29.17;27.55;99532.03;7568160;33;37120;-76
2023/05/22 12:15:53;;;;;;;7.37;2.80;;;;;;;29.50;32.79;99527.91;7543105;33;39875;-71
2023/05/22 12:20:13;;;;;;;9.07;2.62;;;;;;;29.37;27.77;99518.31;7530068;33;40769;-71
2023/05/22 12:24:40;;;;;;;4.40;2.75;;;;;;;29.11;28.06;99517.56;7542667;33;37635;-71
2023/05/22 12:28:58;;;;;;;3.53;2.35;;;;;;;28.68;29.37;99523.25;7559494;33;37107;-71
2023/05/22 12:33:14;;;;;;;5.60;2.40;;;;;;;28.61;29.54;99514.84;7581047;33;40130;-71
2023/05/22 12:37:32;;;;;;;5.40;2.50;;;;;;;28.94;29.30;99512.78;7580948;33;40129;-71
2023/05/22 12:41:48;;;;;;;4.78;2.35;;;;;;;28.39;28.20;99508.38;7567897;33;37790;-71
2023/05/22 12:46:04;;;;;;;4.43;2.35;;;;;;;28.12;28.77;99505.97;7580995;33;37763;-71
2023/05/22 12:50:20;;;;;;;4.32;2.42;;;;;;;28.42;29.29;99500.00;7570713;33;40164;-72
2023/05/22 12:54:37;;;;;;;6.32;2.42;;;;;;;29.03;29.43;99496.34;7561176;33;41114;-69
2023/05/22 12:58:53;;;;;;;11.70;3.08;;;;;;;29.33;27.51;99490.25;7554675;33;38701;-69
2023/05/22 13:03:10;;;;;;;4.50;2.80;;;;;;;29.49;27.83;99489.78;7573513;33;36824;-71
2023/05/22 13:07:26;;;;;;;4.62;2.72;;;;;;;29.51;27.05;99487.41;7575972;33;39464;-78
2023/05/22 13:11:43;;;;;;;5.18;2.60;;;;;;;29.72;25.20;99477.28;7580362;33;40866;-79
2023/05/22 13:15:59;;;;;;;4.93;2.20;;;;;;;30.10;26.02;99481.06;7561861;33;37974;-79
2023/05/22 13:20:16;;;;;;;3.22;1.90;;;;;;;30.11;25.49;99476.22;7546514;33;37445;-78
2023/05/22 13:24:32;;;;;;;7.18;2.65;;;;;;;30.09;26.27;99476.63;7543735;33;40103;-76
2023/05/22 13:28:49;;;;;;;6.00;2.40;;;;;;;30.54;25.08;99472.31;7545377;33;39934;-76
2023/05/22 13:33:05;;;;;;;5.55;2.67;;;;;;;30.71;23.12;99466.50;7539504;33;37627;-77
2023/05/22 13:37:22;;;;;;;5.75;2.58;;;;;;;30.04;25.07;99471.44;7554502;33;37315;-77
2023/05/22 13:41:38;;;;;;;18.17;4.03;;;;;;;30.40;25.38;99453.56;7554446;33;40128;-77
2023/05/22 13:45:54;;;;;;;6.30;2.95;;;;;;;30.25;25.14;99464.91;7554590;33;40853;-77
2023/05/22 13:50:11;;;;;;;5.60;2.70;;;;;;;29.68;26.34;99463.22;7561221;33;38721;-77
2023/05/22 13:54:27;;;;;;;12.60;2.83;;;;;;;29.65;27.34;99454.81;7540115;33;37157;-77
2023/05/22 13:58:43;;;;;;;5.53;2.50;;;;;;;29.57;26.08;99456.88;7553696;33;39087;-77
2023/05/22 14:02:59;;;;;;;10.20;2.75;;;;;;;30.16;26.61;99447.69;7541003;33;40020;-76
2023/05/22 14:07:16;;;;;;;6.97;3.10;;;;;;;30.45;26.70;99445.47;7556227;33;38725;-77
2023/05/22 14:11:33;;;;;;;3.72;2.28;;;;;;;30.64;24.88;99444.06;7578851;33;38049;-77
2023/05/22 14:15:49;;;;;;;6.10;2.35;;;;;;;30.59;24.82;99443.72;7558607;33;39341;-76
2023/05/22 14:20:06;;;;;;;6.40;2.55;;;;;;;30.49;25.09;99442.59;7561693;33;40059;-75
2023/05/22 14:24:22;;;;;;;9.50;2.75;;;;;;;30.35;25.13;99435.09;7555768;33;38779;-76
2023/05/22 14:28:39;;;;;;;5.72;2.80;;;;;;;30.24;26.15;99426.75;7553145;33;37944;-76
2023/05/22 14:32:55;;;;;;;5.15;3.00;;;;;;;30.20;27.21;99434.41;7555175;33;39064;-76
2023/05/22 14:37:11;;;;;;;5.12;2.90;;;;;;;29.75;26.03;99435.09;7553645;33;40575;-76
2023/05/22 14:41:28;;;;;;;8.85;3.08;;;;;;;30.20;25.80;99428.78;7552514;33;38037;-75
2023/05/22 14:45:44;;;;;;;11.10;3.28;;;;;;;30.78;26.78;99433.91;7553292;33;37446;-75
2023/05/22 14:50:00;;;;;;;7.03;2.80;;;;;;;30.59;24.02;99427.66;7552437;33;39550;-75
2023/05/22 14:54:34;;;;;;;4.82;2.53;;;;;;;31.03;26.06;99423.19;7553086;33;39921;-76
2023/05/22 14:58:50;;;;;;;12.95;2.75;;;;;;;30.63;25.51;99431.25;7552796;33;37885;-75
2023/05/22 15:03:06;;;;;;;7.82;3.05;;;;;;;30.48;26.52;99426.97;7552302;33;37230;-75
2023/05/22 15:07:23;;;;;;;13.02;2.78;;;;;;;30.94;27.61;99425.69;7553026;33;39406;-75
2023/05/22 15:11:54;;;;;;;4.63;2.43;;;;;;;30.09;25.86;99426.06;7551922;33;40053;-74
2023/05/22 15:16:11;;;;;;;6.37;2.90;;;;;;;29.77;27.23;99423.50;7552539;33;37980;-75
2023/05/22 15:20:28;;;;;;;6.40;2.87;;;;;;;29.26;28.56;99416.53;7526866;33;37840;-76
2023/05/22 15:24:47;;;;;;;6.62;3.03;;;;;;;29.08;28.15;99427.78;7543693;33;39359;-75
2023/05/22 15:29:03;;;;;;;5.32;2.72;;;;;;;29.44;28.04;99424.84;7555781;33;40978;-75
2023/05/22 15:33:20;;;;;;;6.68;2.90;;;;;;;28.90;27.96;99427.84;7555274;33;38606;-73
2023/05/22 15:37:36;;;;;;;7.15;3.08;;;;;;;29.07;28.56;99424.19;7555673;33;38698;-72
2023/05/22 15:41:53;;;;;;;6.62;2.90;;;;;;;29.03;28.71;99420.59;7555049;33;40153;-70
2023/05/22 15:46:21;;;;;;;3.75;2.80;;;;;;;29.22;30.92;99422.16;7555393;33;40610;-73
2023/05/22 15:50:37;;;;;;;8.63;3.45;;;;;;;29.41;31.42;99418.06;7555538;33;38118;-74
2023/05/22 15:54:54;;;;;;;9.73;3.10;;;;;;;29.32;31.14;99415.69;7563844;33;37251;-71
2023/05/22 15:59:12;;;;;;;6.40;3.17;;;;;;;29.16;31.31;99418.94;7556152;33;39187;-73
2023/05/22 16:03:28;;;;;;;10.52;3.40;;;;;;;28.98;33.44;99430.22;7560815;33;40815;-77
2023/05/22 16:07:44;;;;;;;9.70;3.75;;;;;;;28.78;34.12;99432.69;7556075;33;37766;-76
2023/05/22 16:12:01;;;;;;;9.18;4.03;;;;;;;28.57;36.13;99421.53;7550350;33;37387;-76
2023/05/22 16:16:17;;;;;;;10.52;4.18;;;;;;;28.55;34.38;99423.94;7555338;33;40181;-76
2023/05/22 16:20:34;;;;;;;18.20;4.60;;;;;;;28.36;34.92;99423.09;7553991;33;39972;-76
2023/05/22 16:24:51;;;;;;;14.20;4.50;;;;;;;28.23;35.86;99425.50;7547469;33;37908;-75
2023/05/22 16:29:08;;;;;;;10.45;3.97;;;;;;;27.67;36.71;99432.62;7554705;33;37686;-75
2023/05/22 16:33:25;;;;;;;16.17;4.28;;;;;;;27.75;35.89;99430.63;7554224;33;39330;-76
2023/05/22 16:37:41;;;;;;;8.23;3.50;;;;;;;27.43;36.73;99439.78;7564479;33;40591;-75
2023/05/22 16:41:59;;;;;;;6.05;3.03;;;;;;;27.22;37.32;99440.47;7574950;33;38153;-76
2023/05/22 16:46:16;;;;;;;6.62;3.00;;;;;;;27.15;37.53;99435.63;7579951;33;36783;-75
2023/05/22 16:50:32;;;;;;;12.05;5.32;;;;;;;27.10;37.60;99444.41;7571013;33;40143;-75
2023/05/22 16:54:49;;;;;;;10.85;3.67;;;;;;;27.03;38.51;99447.16;7556187;33;39951;-76
2023/05/22 16:59:06;;;;;;;22.30;6.20;;;;;;;26.91;38.78;99437.91;7545566;33;38385;-76
2023/05/22 17:03:23;;;;;;;12.63;3.80;;;;;;;26.92;38.92;99442.31;7575962;33;37222;-76
2023/05/22 17:07:40;;;;;;;7.43;3.30;;;;;;;26.68;39.28;99445.75;7563947;33;39479;-76
2023/05/22 17:11:56;;;;;;;9.68;3.05;;;;;;;26.85;39.10;99450.66;7566689;33;40788;-76
2023/05/22 17:16:12;;;;;;;5.78;3.25;;;;;;;26.64;39.57;99447.72;7554225;33;38142;-76
2023/05/22 17:20:31;;;;;;;8.95;3.53;;;;;;;26.14;40.41;99448.91;7530330;33;36833;-76
2023/05/22 17:24:48;;;;;;;10.07;4.07;;;;;;;26.11;39.53;99444.09;7528854;33;38570;-76
2023/05/22 17:29:04;;;;;;;8.05;3.72;;;;;;;26.07;40.00;99445.25;7529470;33;39979;-76
2023/05/22 17:33:21;;;;;;;9.02;3.50;;;;;;;25.78;40.21;99442.94;7554982;33;38745;-81
2023/05/22 17:37:38;;;;;;;11.82;4.18;;;;;;;25.75;40.70;99440.94;7553716;33;37372;-77
2023/05/22 17:41:54;;;;;;;6.57;3.45;;;;;;;25.55;41.09;99442.31;7561651;33;39306;-77
2023/05/22 17:46:11;;;;;;;6.75;3.40;;;;;;;25.44;41.07;99439.38;7554770;33;39977;-78
2023/05/22 17:50:27;;;;;;;6.03;3.40;;;;;;;25.33;41.10;99442.06;7537954;33;38853;-78
2023/05/22 17:54:44;;;;;;;8.15;3.78;;;;;;;25.20;41.70;99447.06;7536766;33;37192;-77
2023/05/22 17:59:00;;;;;;;6.87;3.55;;;;;;;25.05;41.95;99443.28;7553905;33;40037;-78
2023/05/22 18:03:20;;;;;;;8.20;3.37;;;;;;;25.00;42.38;99446.38;7554269;33;39990;-81
2023/05/22 18:07:36;;;;;;;22.85;5.68;;;;;;;24.86;42.58;99449.00;7553393;33;38024;-76
2023/05/22 18:11:53;;;;;;;55.90;19.62;;;;;;;24.64;43.02;99450.66;7553817;33;37222;-78
2023/05/22 18:16:09;;;;;;;94.25;36.40;;;;;;;24.71;42.37;99459.13;7552034;33;39836;-78
2023/05/22 18:20:25;;;;;;;49.45;20.80;;;;;;;24.59;42.18;99462.13;7559692;33;40060;-78
2023/05/22 18:24:42;;;;;;;10.65;5.15;;;;;;;24.55;42.10;99471.22;7579203;33;37950;-77
2023/05/22 18:28:58;;;;;;;6.28;2.95;;;;;;;24.24;41.39;99477.84;7570472;33;37136;-80
2023/05/22 18:33:15;;;;;;;5.47;3.03;;;;;;;24.15;41.73;99466.16;7529867;33;40341;-76
2023/05/22 18:37:31;;;;;;;5.70;2.95;;;;;;;23.88;42.27;99470.84;7514059;33;39768;-76
2023/05/22 18:41:48;;;;;;;4.78;2.90;;;;;;;23.89;41.83;99475.25;7554392;33;38785;-76
2023/05/22 18:46:04;;;;;;;6.00;3.22;;;;;;;23.94;41.52;99477.69;7579081;33;36975;-76
2023/05/22 18:50:21;;;;;;;6.78;3.12;;;;;;;23.77;42.81;99470.62;7554619;33;39959;-76
2023/05/22 18:54:38;;;;;;;6.25;3.10;;;;;;;23.80;42.08;99475.44;7553165;33;38859;-76
2023/05/22 18:58:54;;;;;;;5.87;2.72;;;;;;;23.88;41.30;99477.22;7560174;33;38787;-76
2023/05/22 19:03:11;;;;;;;9.02;3.35;;;;;;;23.75;41.97;99478.50;7561081;33;37038;-76
2023/05/22 19:07:27;;;;;;;6.45;2.95;;;;;;;23.50;43.66;99478.03;7552760;33;40011;-77
2023/05/22 19:11:43;;;;;;;4.53;3.03;;;;;;;23.46;43.54;99477.16;7560341;33;39731;-76
2023/05/22 19:16:00;;;;;;;6.00;3.08;;;;;;;23.22;44.01;99479.84;7552568;33;38002;-76
2023/05/22 19:20:16;;;;;;;8.95;3.30;;;;;;;23.23;44.29;99492.59;7567547;33;37107;-76
2023/05/22 19:24:32;;;;;;;7.00;3.35;;;;;;;23.09;45.18;99497.84;7537595;33;39332;-76
2023/05/22 19:28:48;;;;;;;5.97;3.22;;;;;;;22.96;46.36;99488.78;7536027;33;40940;-77
2023/05/22 19:33:05;;;;;;;9.90;3.58;;;;;;;22.96;46.76;99501.91;7553702;33;38128;-76
2023/05/22 19:37:23;;;;;;;6.57;2.85;;;;;;;22.65;47.70;99498.00;7536472;33;37709;-76
2023/05/22 19:41:40;;;;;;;31.37;12.80;;;;;;;22.55;47.67;99507.69;7538174;33;39985;-76
2023/05/22 19:45:56;;;;;;;9.18;4.57;;;;;;;22.45;47.09;99503.47;7538229;33;39982;-77
2023/05/22 19:50:16;;;;;;;19.80;7.40;;;;;;;22.47;47.56;99509.50;7536528;33;36246;-76
2023/05/22 19:54:36;;;;;;;16.62;7.75;;;;;;;22.55;47.02;99518.78;7537492;33;37985;-77
2023/05/22 19:58:52;;;;;;;9.98;5.82;;;;;;;22.32;47.43;99515.84;7534166;33;39551;-77
2023/05/22 20:03:08;;;;;;;10.48;5.35;;;;;;;22.23;47.46;99513.22;7535009;33;39935;-76
2023/05/22 20:07:24;;;;;;;9.68;5.12;;;;;;;22.23;47.03;99523.50;7535205;33;38576;-77
2023/05/22 20:11:42;;;;;;;22.60;11.15;;;;;;;22.25;47.05;99524.75;7547744;33;36693;-77